createdAt,value
2018-02-14T00:02:21.413Z,31.33
2018-02-14T00:04:48.804Z,40.67
2018-02-14T00:07:16.161Z,38.47
2018-02-14T00:09:43.568Z,35.53
2018-02-14T00:12:10.991Z,42.17
2018-02-14T00:14:38.377Z,37.23
2018-02-14T00:17:05.738Z,37.53
2018-02-14T00:19:33.188Z,46.00
2018-02-14T00:22:00.560Z,35.67
2018-02-14T00:24:27.958Z,35.80
2018-02-14T00:26:55.360Z,38.30
2018-02-14T00:29:22.712Z,32.43
2018-02-14T00:31:50.117Z,36.57
2018-02-14T00:34:18.359Z,33.50
2018-02-14T00:36:45.775Z,36.00
2018-02-14T00:39:13.193Z,34.77
2018-02-14T00:41:40.622Z,35.73
2018-02-14T00:44:08.072Z,34.63
2018-02-14T00:46:35.448Z,35.90
2018-02-14T00:49:02.809Z,36.03
2018-02-14T00:51:30.218Z,44.23
2018-02-14T00:53:57.593Z,35.40
2018-02-14T00:56:24.951Z,36.07
2018-02-14T00:58:52.347Z,39.83
2018-02-14T01:01:19.754Z,37.70
2018-02-14T01:03:47.220Z,36.63
2018-02-14T01:06:14.606Z,38.80
2018-02-14T01:08:41.957Z,37.23
2018-02-14T01:11:09.316Z,33.70
2018-02-14T01:13:36.734Z,30.63
2018-02-14T01:16:04.093Z,39.53
2018-02-14T01:18:37.371Z,36.90
2018-02-14T01:21:04.732Z,38.93
2018-02-14T01:23:32.090Z,44.63
2018-02-14T01:25:59.510Z,35.60
2018-02-14T01:28:26.866Z,36.70
2018-02-14T01:30:54.228Z,48.33
2018-02-14T01:33:21.821Z,39.03
2018-02-14T01:35:49.168Z,36.67
2018-02-14T01:38:16.520Z,37.07
2018-02-14T01:40:43.989Z,41.97
2018-02-14T01:43:11.445Z,35.63
2018-02-14T01:45:39.069Z,32.67
2018-02-14T01:48:06.457Z,41.57
2018-02-14T01:50:38.664Z,38.20
2018-02-14T01:53:06.017Z,40.83
2018-02-14T01:55:33.377Z,45.33
2018-02-14T01:58:00.777Z,39.13
2018-02-14T02:00:28.136Z,40.30
2018-02-14T02:02:55.493Z,39.90
2018-02-14T02:05:22.903Z,40.53
2018-02-14T02:07:50.258Z,36.30
2018-02-14T02:10:17.647Z,40.20
2018-02-14T02:12:45.074Z,42.30
2018-02-14T02:15:12.438Z,36.43
2018-02-14T02:17:40.047Z,43.33
2018-02-14T02:20:07.406Z,34.73
2018-02-14T02:22:34.776Z,40.23
2018-02-14T02:25:02.309Z,44.33
2018-02-14T02:27:29.666Z,39.20
2018-02-14T02:29:57.108Z,37.70
2018-02-14T02:32:24.500Z,39.57
2018-02-14T02:34:55.665Z,39.73
2018-02-14T02:37:23.045Z,44.07
2018-02-14T02:39:56.365Z,37.23
2018-02-14T02:42:23.829Z,35.37
2018-02-14T02:44:51.183Z,38.00
2018-02-14T02:47:18.566Z,41.83
2018-02-14T02:49:45.925Z,38.83
2018-02-14T02:52:13.321Z,41.47
2018-02-14T02:54:40.683Z,40.60
2018-02-14T02:57:08.037Z,34.53
2018-02-14T02:59:35.617Z,34.27
2018-02-14T03:02:02.981Z,40.33
2018-02-14T03:04:30.333Z,40.97
2018-02-14T03:06:57.785Z,37.63
2018-02-14T03:09:25.328Z,41.83
2018-02-14T03:11:52.700Z,42.73
2018-02-14T03:14:20.127Z,44.17
2018-02-14T03:16:47.482Z,43.33
2018-02-14T03:19:14.838Z,44.33
2018-02-14T03:21:42.225Z,40.63
2018-02-14T03:24:09.581Z,43.17
2018-02-14T03:26:36.937Z,52.63
2018-02-14T03:29:04.320Z,39.63
2018-02-14T03:31:31.672Z,44.47
2018-02-14T03:33:59.041Z,36.47
2018-02-14T03:36:26.549Z,44.03
2018-02-14T03:38:53.904Z,48.93
2018-02-14T03:41:21.260Z,39.20
2018-02-14T03:43:48.653Z,39.37
2018-02-14T03:46:16.036Z,44.57
2018-02-14T03:48:43.398Z,38.67
2018-02-14T03:51:10.804Z,43.23
2018-02-14T03:53:38.176Z,55.33
2018-02-14T03:56:05.534Z,45.73
2018-02-14T03:58:32.919Z,44.57
2018-02-14T04:01:00.293Z,46.17
2018-02-14T04:03:27.648Z,41.73
2018-02-14T04:05:56.009Z,40.83
2018-02-14T04:08:23.376Z,50.77
2018-02-14T04:10:50.752Z,41.40
2018-02-14T04:13:18.133Z,51.17
2018-02-14T04:15:45.512Z,42.30
2018-02-14T04:18:12.870Z,43.93
2018-02-14T04:20:40.358Z,47.87
2018-02-14T04:23:07.724Z,46.67
2018-02-14T04:25:35.100Z,47.07
2018-02-14T04:28:04.474Z,47.90
2018-02-14T04:30:31.834Z,35.63
2018-02-14T04:32:59.191Z,42.77
2018-02-14T04:35:26.605Z,39.07
2018-02-14T04:37:54.037Z,46.23
2018-02-14T04:40:21.405Z,49.33
2018-02-14T04:42:48.810Z,40.80
2018-02-14T04:45:16.161Z,41.40
2018-02-14T04:47:43.620Z,43.10
2018-02-14T04:50:11.005Z,42.23
2018-02-14T04:52:38.367Z,47.00
2018-02-14T04:55:05.769Z,44.60
2018-02-14T04:57:33.458Z,40.80
2018-02-14T05:00:00.826Z,43.07
2018-02-14T05:02:28.228Z,42.67
2018-02-14T05:04:55.588Z,45.43
2018-02-14T05:07:22.943Z,45.10
2018-02-14T05:09:50.358Z,47.63
2018-02-14T05:12:17.757Z,45.23
2018-02-14T05:14:45.113Z,55.00
2018-02-14T05:17:12.502Z,43.83
2018-02-14T05:19:39.864Z,50.23
2018-02-14T05:22:07.228Z,51.00
2018-02-14T05:24:34.645Z,49.60
2018-02-14T05:27:01.997Z,47.77
2018-02-14T05:29:29.417Z,41.47
2018-02-14T05:31:56.776Z,39.53
2018-02-14T05:34:24.160Z,48.70
2018-02-14T05:36:51.586Z,46.17
2018-02-14T05:39:18.950Z,51.07
2018-02-14T05:41:46.312Z,52.47
2018-02-14T05:44:13.726Z,41.27
2018-02-14T05:46:41.090Z,48.47
2018-02-14T05:49:08.457Z,47.27
2018-02-14T05:51:35.868Z,46.33
2018-02-14T05:54:03.239Z,49.03
2018-02-14T05:56:30.638Z,48.97
2018-02-14T05:58:57.996Z,56.47
2018-02-14T06:01:25.357Z,48.83
2018-02-14T06:03:52.813Z,43.77
2018-02-14T06:06:20.168Z,46.73
2018-02-14T06:08:47.533Z,53.50
2018-02-14T06:11:14.930Z,46.63
2018-02-14T06:13:42.322Z,53.80
2018-02-14T06:16:09.694Z,57.87
2018-02-14T06:18:37.117Z,51.33
2018-02-14T06:21:04.496Z,50.57
2018-02-14T06:23:31.863Z,50.53
2018-02-14T06:25:59.276Z,47.70
2018-02-14T06:28:26.664Z,50.10
2018-02-14T06:30:54.020Z,52.53
2018-02-14T06:33:21.413Z,52.93
2018-02-14T06:35:48.809Z,55.60
2018-02-14T06:38:16.169Z,53.97
2018-02-14T06:40:43.606Z,53.83
2018-02-14T06:43:10.971Z,58.97
2018-02-14T06:45:38.332Z,50.60
2018-02-14T06:48:05.916Z,55.50
2018-02-14T06:50:33.277Z,51.90
2018-02-14T06:53:00.633Z,59.73
2018-02-14T06:55:28.045Z,55.80
2018-02-14T06:57:55.397Z,59.23
2018-02-14T07:00:22.816Z,57.60
2018-02-14T07:02:50.196Z,64.50
2018-02-14T07:05:17.586Z,56.80
2018-02-14T07:07:45.001Z,61.07
2018-02-14T07:10:12.371Z,55.87
2018-02-14T07:12:39.729Z,61.77
2018-02-14T07:15:07.124Z,61.33
2018-02-14T07:17:34.486Z,61.63
2018-02-14T07:20:01.845Z,62.57
2018-02-14T07:22:29.234Z,57.63
2018-02-14T07:24:56.585Z,61.43
2018-02-14T07:27:23.950Z,58.43
2018-02-14T07:29:51.360Z,66.57
2018-02-14T07:32:18.749Z,62.73
2018-02-14T07:34:46.100Z,66.00
2018-02-14T07:37:13.505Z,58.90
2018-02-14T07:39:40.902Z,62.70
2018-02-14T07:42:08.256Z,66.27
2018-02-14T07:44:35.713Z,57.23
2018-02-14T07:47:03.077Z,67.60
2018-02-14T07:49:30.437Z,57.90
2018-02-14T07:51:57.814Z,64.23
2018-02-14T07:54:25.177Z,67.50
2018-02-14T07:56:52.581Z,63.90
2018-02-14T07:59:19.948Z,65.70
2018-02-14T08:01:47.326Z,67.03
2018-02-14T08:04:14.720Z,62.60
2018-02-14T08:06:42.081Z,62.90
2018-02-14T08:09:09.488Z,69.40
2018-02-14T08:11:36.884Z,57.37
2018-02-14T08:14:04.246Z,62.83
2018-02-14T08:16:31.621Z,63.63
2018-02-14T08:18:59.024Z,63.70
2018-02-14T08:21:26.393Z,67.27
2018-02-14T08:23:53.750Z,72.37
2018-02-14T08:26:21.153Z,60.77
2018-02-14T08:28:48.504Z,68.83
2018-02-14T08:31:15.863Z,61.27
2018-02-14T08:33:43.421Z,80.63
2018-02-14T08:36:10.785Z,61.13
2018-02-14T08:38:38.151Z,62.20
2018-02-14T08:41:05.565Z,71.07
2018-02-14T08:43:32.920Z,61.70
2018-02-14T08:46:00.318Z,65.90
2018-02-14T08:48:27.689Z,69.10
2018-02-14T08:50:55.044Z,67.30
2018-02-14T08:53:22.459Z,72.13
2018-02-14T08:55:49.821Z,62.80
2018-02-14T08:58:17.182Z,69.40
2018-02-14T09:00:44.588Z,64.40
2018-02-14T09:03:11.945Z,65.83
2018-02-14T09:05:39.302Z,65.93
2018-02-14T09:08:06.709Z,67.87
2018-02-14T09:10:34.075Z,63.73
2018-02-14T09:13:01.433Z,69.17
2018-02-14T09:15:28.832Z,54.83
2018-02-14T09:17:56.189Z,58.57
2018-02-14T09:20:23.552Z,61.10
2018-02-14T09:22:50.932Z,59.43
2018-02-14T09:25:18.289Z,70.83
2018-02-14T09:27:45.693Z,60.70
2018-02-14T09:30:13.085Z,62.67
2018-02-14T09:32:40.438Z,65.03
2018-02-14T09:35:07.853Z,61.53
2018-02-14T09:37:35.207Z,64.53
2018-02-14T09:40:02.585Z,65.43
2018-02-14T09:42:29.972Z,62.50
2018-02-14T09:44:57.321Z,68.47
2018-02-14T09:47:24.678Z,68.67
2018-02-14T09:49:52.060Z,71.93
2018-02-14T09:52:19.432Z,59.30
2018-02-14T09:54:46.779Z,68.50
2018-02-14T09:57:14.161Z,63.37
2018-02-14T09:59:41.522Z,69.97
2018-02-14T10:02:08.941Z,64.87
2018-02-14T10:04:36.299Z,63.07
2018-02-14T10:07:03.657Z,66.20
2018-02-14T10:09:31.053Z,67.43
2018-02-14T10:11:58.438Z,60.93
2018-02-14T10:14:25.801Z,62.93
2018-02-14T10:16:53.245Z,67.80
2018-02-14T10:19:20.609Z,59.83
2018-02-14T10:21:47.972Z,63.70
2018-02-14T10:24:15.365Z,70.50
2018-02-14T10:26:42.737Z,71.10
2018-02-14T10:29:10.137Z,59.03
2018-02-14T10:31:37.494Z,59.30
2018-02-14T10:34:04.848Z,63.83
2018-02-14T10:36:32.370Z,59.23
2018-02-14T10:38:59.825Z,58.77
2018-02-14T10:41:27.207Z,68.03
2018-02-14T10:43:54.589Z,62.90
2018-02-14T10:46:21.989Z,67.63
2018-02-14T10:48:49.345Z,68.70
2018-02-14T10:51:16.751Z,61.40
2018-02-14T10:53:44.104Z,61.80
2018-02-14T10:56:11.460Z,61.30
2018-02-14T10:58:38.860Z,59.10
2018-02-14T11:01:06.249Z,57.73
2018-02-14T11:03:39.361Z,55.53
2018-02-14T11:06:12.708Z,53.20
2018-02-14T11:08:40.116Z,51.57
2018-02-14T11:11:07.481Z,52.03
2018-02-14T11:13:34.839Z,56.33
2018-02-14T11:16:02.242Z,52.67
2018-02-14T11:18:29.605Z,48.20
2018-02-14T11:20:56.958Z,49.50
2018-02-14T11:23:24.348Z,45.50
2018-02-14T11:25:51.704Z,46.33
2018-02-14T11:28:19.056Z,46.43
2018-02-14T11:30:46.468Z,45.00
2018-02-14T11:33:13.833Z,46.50
2018-02-14T11:35:41.188Z,46.60
2018-02-14T11:38:08.741Z,43.30
2018-02-14T11:40:36.092Z,42.27
2018-02-14T11:43:03.453Z,44.03
2018-02-14T11:45:30.855Z,42.87
2018-02-14T11:47:58.213Z,44.07
2018-02-14T11:50:25.573Z,45.30
2018-02-14T11:52:52.984Z,40.87
2018-02-14T11:55:20.337Z,52.50
2018-02-14T11:57:47.697Z,42.63
2018-02-14T12:00:15.089Z,46.97
2018-02-14T12:02:42.441Z,38.60
2018-02-14T12:05:09.806Z,45.03
2018-02-14T12:07:37.300Z,44.53
2018-02-14T12:10:04.662Z,32.93
2018-02-14T12:12:32.014Z,36.60
2018-02-14T12:14:59.417Z,35.73
2018-02-14T12:17:26.772Z,33.80
2018-02-14T12:19:54.149Z,38.07
2018-02-14T12:22:21.896Z,34.53
2018-02-14T12:24:49.257Z,29.00
2018-02-14T12:27:16.660Z,28.67
2018-02-14T12:29:44.208Z,28.23
2018-02-14T12:32:11.564Z,30.13
2018-02-14T12:34:38.916Z,23.63
2018-02-14T12:37:06.473Z,25.00
2018-02-14T12:39:33.836Z,24.90
2018-02-14T12:42:01.223Z,23.30
2018-02-14T12:44:28.618Z,23.77
2018-02-14T12:46:56.014Z,31.33
2018-02-14T12:49:23.369Z,28.53
2018-02-14T12:51:50.722Z,26.20
2018-02-14T12:54:18.120Z,27.37
2018-02-14T12:56:45.473Z,27.70
2018-02-14T12:59:12.828Z,30.27
2018-02-14T13:01:40.234Z,29.63
2018-02-14T13:04:07.656Z,28.00
2018-02-14T13:06:35.010Z,28.63
2018-02-14T13:09:02.414Z,26.70
2018-02-14T13:11:29.789Z,28.10
2018-02-14T13:13:57.149Z,26.80
2018-02-14T13:16:24.542Z,32.20
2018-02-14T13:18:51.946Z,31.23
2018-02-14T13:21:19.313Z,36.70
2018-02-14T13:23:46.705Z,36.50
2018-02-14T13:26:14.077Z,35.10
2018-02-14T13:28:41.436Z,32.03
2018-02-14T13:31:08.837Z,36.03
2018-02-14T13:33:36.197Z,32.80
2018-02-14T13:36:03.556Z,30.87
2018-02-14T13:38:30.945Z,35.85
2018-02-14T13:40:58.301Z,34.20
2018-02-14T13:43:25.660Z,31.20
2018-02-14T13:45:53.042Z,33.13
2018-02-14T13:48:20.449Z,32.07
2018-02-14T13:50:47.840Z,33.33
2018-02-14T13:53:15.196Z,30.40
2018-02-14T13:55:42.546Z,35.37
2018-02-14T13:58:09.958Z,28.43
2018-02-14T14:00:37.320Z,27.27
2018-02-14T14:03:04.691Z,28.03
2018-02-14T14:05:32.173Z,23.57
2018-02-14T14:07:59.529Z,26.73
2018-02-14T14:10:26.901Z,22.70
2018-02-14T14:12:54.353Z,25.80
2018-02-14T14:15:21.712Z,24.60
2018-02-14T14:17:49.068Z,28.77
2018-02-14T14:20:16.472Z,25.97
2018-02-14T14:22:43.840Z,23.73
2018-02-14T14:25:11.210Z,22.63
2018-02-14T14:27:38.597Z,26.20
2018-02-14T14:30:05.952Z,27.13
2018-02-14T14:32:33.312Z,29.50
2018-02-14T14:35:00.733Z,23.50
2018-02-14T14:37:28.092Z,21.43
2018-02-14T14:39:55.448Z,24.80
2018-02-14T14:42:22.996Z,22.23
2018-02-14T14:44:50.374Z,27.60
2018-02-14T14:47:17.737Z,31.00
2018-02-14T14:49:45.136Z,35.60
2018-02-14T14:52:12.493Z,31.47
2018-02-14T14:54:39.860Z,30.63
2018-02-14T14:57:07.273Z,28.50
2018-02-14T14:59:34.672Z,28.10
2018-02-14T15:02:02.985Z,32.07
2018-02-14T15:04:30.343Z,34.93
2018-02-14T15:06:57.780Z,30.33
2018-02-14T15:09:25.193Z,33.90
2018-02-14T15:11:52.553Z,36.03
2018-02-14T15:14:19.910Z,39.27
2018-02-14T15:16:47.332Z,37.07
2018-02-14T15:19:14.698Z,38.20
2018-02-14T15:21:42.057Z,34.57
2018-02-14T15:24:09.452Z,33.93
2018-02-14T15:26:36.812Z,36.57
2018-02-14T15:29:04.172Z,34.90
2018-02-14T15:31:31.593Z,35.20
2018-02-14T15:33:58.947Z,40.00
2018-02-14T15:36:26.348Z,35.40
2018-02-14T15:38:53.744Z,35.23
2018-02-14T15:41:21.111Z,38.73
2018-02-14T15:43:48.473Z,40.63
2018-02-14T15:46:16.031Z,49.30
2018-02-14T15:48:43.388Z,45.43
2018-02-14T15:51:10.766Z,45.43
2018-02-14T15:53:38.364Z,42.13
2018-02-14T15:56:05.717Z,46.73
2018-02-14T15:58:33.090Z,47.80
2018-02-14T16:01:00.518Z,52.90
2018-02-14T16:03:27.879Z,55.43
2018-02-14T16:05:55.270Z,56.47
2018-02-14T16:08:22.690Z,53.53
2018-02-14T16:10:50.050Z,57.43
2018-02-14T16:13:17.413Z,58.00
2018-02-14T16:15:44.837Z,63.70
2018-02-14T16:18:12.189Z,62.70
2018-02-14T16:20:39.605Z,69.63
2018-02-14T16:23:07.014Z,63.80
2018-02-14T16:25:34.364Z,64.23
2018-02-14T16:28:01.730Z,68.70
2018-02-14T16:30:29.134Z,65.37
2018-02-14T16:32:56.506Z,68.07
2018-02-14T16:35:24.085Z,66.33
2018-02-14T16:37:51.488Z,74.70
2018-02-14T16:40:18.845Z,74.30
2018-02-14T16:42:46.233Z,70.20
2018-02-14T16:45:13.590Z,76.13
2018-02-14T16:47:40.942Z,83.57
2018-02-14T16:50:08.330Z,78.70
2018-02-14T16:52:35.689Z,82.13
2018-02-14T16:55:03.045Z,81.07
2018-02-14T16:57:30.500Z,79.90
2018-02-14T16:59:57.863Z,76.67
2018-02-14T17:02:25.222Z,80.77
2018-02-14T17:04:52.634Z,81.87
2018-02-14T17:07:19.996Z,82.77
2018-02-14T17:09:47.369Z,79.17
2018-02-14T17:12:14.761Z,78.87
2018-02-14T17:14:42.130Z,76.80
2018-02-14T17:17:09.484Z,91.30
2018-02-14T17:19:36.885Z,89.97
2018-02-14T17:22:04.280Z,91.73
2018-02-14T17:24:31.633Z,87.00
2018-02-14T17:26:59.134Z,91.80
2018-02-14T17:29:26.492Z,95.97
2018-02-14T17:31:53.856Z,105.70
2018-02-14T17:34:21.277Z,99.73
2018-02-14T17:36:48.641Z,95.13
2018-02-14T17:39:16.007Z,93.40
2018-02-14T17:41:43.418Z,102.20
2018-02-14T17:44:10.836Z,91.47
2018-02-14T17:46:38.257Z,104.47
2018-02-14T17:49:05.624Z,102.50
2018-02-14T17:51:33.021Z,94.20
2018-02-14T17:54:00.380Z,109.50
2018-02-14T17:56:27.741Z,108.00
2018-02-14T17:58:55.158Z,94.30
2018-02-14T18:01:22.514Z,91.73
2018-02-14T18:03:50.084Z,102.03
2018-02-14T18:06:17.476Z,108.47
2018-02-14T18:08:44.857Z,105.07
2018-02-14T18:11:12.393Z,105.63
2018-02-14T18:13:39.766Z,101.00
2018-02-14T18:16:12.908Z,115.57
2018-02-14T18:18:40.305Z,101.30
2018-02-14T18:21:07.700Z,106.33
2018-02-14T18:23:35.116Z,118.27
2018-02-14T18:26:02.481Z,113.33
2018-02-14T18:28:29.840Z,110.43
2018-02-14T18:30:57.258Z,127.37
2018-02-14T18:33:24.620Z,103.53
2018-02-14T18:35:51.989Z,123.83
2018-02-14T18:38:19.417Z,122.10
2018-02-14T18:40:46.789Z,116.27
2018-02-14T18:43:14.155Z,116.80
2018-02-14T18:45:41.589Z,121.03
2018-02-14T18:48:08.957Z,112.60
2018-02-14T18:50:36.360Z,103.60
2018-02-14T18:53:03.748Z,114.20
2018-02-14T18:55:31.108Z,110.27
2018-02-14T18:57:58.535Z,125.57
2018-02-14T19:00:25.937Z,113.73
2018-02-14T19:02:53.320Z,115.60
2018-02-14T19:05:20.741Z,112.63
2018-02-14T19:07:48.153Z,105.33
2018-02-14T19:10:15.549Z,116.37
2018-02-14T19:12:42.961Z,104.63
2018-02-14T19:15:10.374Z,104.27
2018-02-14T19:17:37.742Z,105.93
2018-02-14T19:20:05.121Z,105.97
2018-02-14T19:22:32.520Z,102.87
2018-02-14T19:24:59.890Z,93.80
2018-02-14T19:27:27.253Z,103.77
2018-02-14T19:29:54.650Z,96.77
2018-02-14T19:32:22.065Z,106.33
2018-02-14T19:34:49.477Z,109.67
2018-02-14T19:37:16.842Z,99.33
2018-02-14T19:39:44.226Z,98.83
2018-02-14T19:42:11.654Z,111.03
2018-02-14T19:44:39.381Z,117.60
2018-02-14T19:47:06.745Z,107.57
2018-02-14T19:49:34.158Z,110.40
2018-02-14T19:52:01.532Z,118.17
2018-02-14T19:54:28.892Z,114.77
2018-02-14T19:56:56.307Z,115.83
2018-02-14T19:59:23.709Z,113.90
2018-02-14T20:01:51.068Z,105.37
2018-02-14T20:04:18.473Z,107.87
2018-02-14T20:06:46.018Z,112.33
2018-02-14T20:09:13.395Z,106.73
2018-02-14T20:11:40.769Z,111.63
2018-02-14T20:14:08.181Z,103.60
2018-02-14T20:16:35.578Z,98.67
2018-02-14T20:19:02.976Z,102.93
2018-02-14T20:21:30.393Z,110.23
2018-02-14T20:23:57.761Z,104.17
2018-02-14T20:26:25.151Z,96.07
2018-02-14T20:28:52.524Z,113.93
2018-02-14T20:31:19.930Z,122.10
2018-02-14T20:33:47.291Z,109.40
2018-02-14T20:36:14.708Z,112.47
2018-02-14T20:38:42.126Z,114.70
2018-02-14T20:41:09.496Z,108.67
2018-02-14T20:43:36.864Z,108.40
2018-02-14T20:46:04.284Z,115.70
2018-02-14T20:48:31.653Z,123.63
2018-02-14T20:50:59.029Z,113.07
2018-02-14T20:53:26.442Z,108.53
2018-02-14T20:55:54.397Z,104.83
2018-02-14T20:58:21.757Z,109.70
2018-02-14T21:00:49.153Z,106.73
2018-02-14T21:03:16.520Z,102.60
2018-02-14T21:05:43.930Z,106.93
2018-02-14T21:08:11.301Z,109.93
2018-02-14T21:10:38.667Z,115.03
2018-02-14T21:13:06.076Z,107.60
2018-02-14T21:15:33.506Z,104.13
2018-02-14T21:18:00.886Z,104.73
2018-02-14T21:20:28.305Z,108.80
2018-02-14T21:22:55.684Z,110.60
2018-02-14T21:25:23.049Z,117.17
2018-02-14T21:27:50.463Z,112.13
2018-02-14T21:30:17.827Z,114.03
2018-02-14T21:32:45.185Z,114.60
2018-02-14T21:35:12.612Z,117.33
2018-02-14T21:37:39.977Z,114.40
2018-02-14T21:40:07.374Z,104.93
2018-02-14T21:42:34.782Z,117.40
2018-02-14T21:45:02.167Z,111.17
2018-02-14T21:47:29.609Z,104.27
2018-02-14T21:49:56.996Z,106.50
2018-02-14T21:52:24.356Z,103.73
2018-02-14T21:54:51.769Z,90.17
2018-02-14T21:57:19.131Z,91.77
2018-02-14T21:59:46.496Z,101.87
2018-02-14T22:02:13.942Z,88.83
2018-02-14T22:04:41.318Z,91.40
2018-02-14T22:07:08.684Z,93.90
2018-02-14T22:09:36.073Z,92.17
2018-02-14T22:12:03.428Z,83.23
2018-02-14T22:14:30.788Z,83.80
2018-02-14T22:16:58.216Z,94.47
2018-02-14T22:19:25.572Z,63.47
2018-02-14T22:21:52.944Z,76.13
2018-02-14T22:24:20.337Z,80.30
2018-02-14T22:26:47.705Z,82.00
2018-02-14T22:29:15.073Z,86.83
2018-02-14T22:31:42.493Z,72.57
2018-02-14T22:34:09.846Z,82.87
2018-02-14T22:36:37.200Z,85.20
2018-02-14T22:39:04.620Z,90.80
2018-02-14T22:41:31.985Z,72.17
2018-02-14T22:43:59.337Z,82.23
2018-02-14T22:46:26.733Z,71.17
2018-02-14T22:48:54.140Z,92.33
2018-02-14T22:51:21.494Z,81.60
2018-02-14T22:53:48.876Z,91.03
2018-02-14T22:56:16.229Z,80.47
2018-02-14T22:58:43.635Z,81.20
2018-02-14T23:01:10.988Z,79.73
2018-02-14T23:03:38.344Z,83.60
2018-02-14T23:06:05.756Z,75.47
2018-02-14T23:08:33.112Z,74.20
2018-02-14T23:11:00.466Z,73.30
2018-02-14T23:13:27.853Z,88.10
2018-02-14T23:15:55.221Z,92.73
2018-02-14T23:18:22.585Z,79.50
2018-02-14T23:20:50.006Z,89.87
2018-02-14T23:23:17.381Z,94.80
2018-02-14T23:25:44.742Z,94.20
2018-02-14T23:28:12.153Z,91.80
2018-02-14T23:30:39.523Z,82.73
2018-02-14T23:33:06.929Z,95.70
2018-02-14T23:35:34.286Z,89.60
2018-02-14T23:38:01.664Z,89.83
2018-02-14T23:40:29.073Z,104.90
2018-02-14T23:42:56.432Z,103.00
2018-02-14T23:45:23.796Z,92.87
2018-02-14T23:47:51.205Z,96.53
2018-02-14T23:50:18.569Z,93.63
2018-02-14T23:52:45.956Z,87.37
2018-02-14T23:55:13.361Z,88.63
2018-02-14T23:57:40.712Z,82.93
